createdAt,value
2018-03-04T00:00:52.271Z,98357.48
2018-03-04T00:03:55.745Z,98361.93
2018-03-04T00:10:00.660Z,98357.64
2018-03-04T00:13:05.768Z,98356.63
2018-03-04T00:16:07.538Z,98351.93
2018-03-04T00:19:09.317Z,98359.08
2018-03-04T00:22:12.885Z,98351.35
2018-03-04T00:25:15.559Z,98350.55
2018-03-04T00:28:18.290Z,98361.38
2018-03-04T00:31:20.055Z,98356.48
2018-03-04T00:34:23.775Z,98354.87
2018-03-04T00:37:25.532Z,98354.36
2018-03-04T00:40:27.362Z,98352.55
2018-03-04T00:43:31.893Z,98358.59
2018-03-04T00:46:34.561Z,98359.44
2018-03-04T00:49:37.325Z,98356.15
2018-03-04T00:52:39.072Z,98358.72
2018-03-04T00:55:40.328Z,98354.80
2018-03-04T00:58:41.530Z,98356.90
2018-03-04T01:01:42.744Z,98357.06
2018-03-04T01:04:43.964Z,98359.22
2018-03-04T01:07:45.932Z,98350.06
2018-03-04T01:10:47.181Z,98344.88
2018-03-04T01:13:48.382Z,98340.29
2018-03-04T01:16:49.595Z,98334.63
2018-03-04T01:19:50.821Z,98325.81
2018-03-04T01:22:52.009Z,98325.81
2018-03-04T01:25:53.220Z,98333.19
2018-03-04T01:28:55.200Z,98323.78
2018-03-04T01:31:57.164Z,98328.72
2018-03-04T01:34:58.353Z,98323.61
2018-03-04T01:37:59.577Z,98321.78
2018-03-04T01:41:00.820Z,98317.98
2018-03-04T01:44:02.065Z,98320.28
2018-03-04T01:47:03.303Z,98326.34
2018-03-04T01:50:04.545Z,98324.59
2018-03-04T01:53:06.495Z,98326.43
2018-03-04T01:56:07.693Z,98323.13
2018-03-04T01:59:09.665Z,98312.44
2018-03-04T02:02:11.624Z,98322.95
2018-03-04T02:05:12.949Z,98325.78
2018-03-04T02:08:14.202Z,98326.25
2018-03-04T02:11:15.406Z,98331.41
2018-03-04T02:14:16.613Z,98317.65
2018-03-04T02:17:17.825Z,98316.65
2018-03-04T02:20:19.048Z,98312.67
2018-03-04T02:23:20.273Z,98317.95
2018-03-04T02:26:21.495Z,98310.01
2018-03-04T02:29:22.720Z,98304.36
2018-03-04T02:32:24.651Z,98313.97
2018-03-04T02:35:25.874Z,98309.55
2018-03-04T02:38:27.104Z,98310.77
2018-03-04T02:41:29.045Z,98304.69
2018-03-04T02:44:30.304Z,98306.34
2018-03-04T02:47:31.505Z,98309.71
2018-03-04T02:50:32.705Z,98302.42
2018-03-04T02:53:33.917Z,98292.92
2018-03-04T02:56:35.113Z,98297.13
2018-03-04T02:59:37.058Z,98298.59
2018-03-04T03:02:38.381Z,98296.09
2018-03-04T03:05:39.593Z,98287.02
2018-03-04T03:08:40.840Z,98287.27
2018-03-04T03:11:42.059Z,98271.73
2018-03-04T03:14:43.286Z,98276.23
2018-03-04T03:17:45.252Z,98277.38
2018-03-04T03:20:46.453Z,98272.30
2018-03-04T03:23:47.665Z,98275.01
2018-03-04T03:26:48.850Z,98280.80
2018-03-04T03:29:50.069Z,98283.64
2018-03-04T03:32:51.288Z,98277.67
2018-03-04T03:35:53.240Z,98270.06
2018-03-04T03:38:54.454Z,98266.73
2018-03-04T03:41:55.670Z,98263.33
2018-03-04T03:44:56.892Z,98251.90
2018-03-04T03:47:58.089Z,98252.58
2018-03-04T03:50:59.290Z,98242.66
2018-03-04T03:54:00.518Z,98237.31
2018-03-04T03:57:01.841Z,98223.88
2018-03-04T04:00:03.079Z,98230.43
2018-03-04T04:03:04.288Z,98232.64
2018-03-04T04:06:05.489Z,98241.63
2018-03-04T04:09:07.480Z,98238.70
2018-03-04T04:12:09.438Z,98230.06
2018-03-04T04:15:10.650Z,98225.11
2018-03-04T04:18:11.873Z,98239.42
2018-03-04T04:21:13.813Z,98237.34
2018-03-04T04:24:15.101Z,98231.98
2018-03-04T04:27:16.332Z,98225.02
2018-03-04T04:30:17.588Z,98225.91
2018-03-04T04:33:18.815Z,98221.62
2018-03-04T04:36:20.751Z,98211.14
2018-03-04T04:39:21.987Z,98212.56
2018-03-04T04:42:23.189Z,98224.41
2018-03-04T04:45:24.408Z,98224.42
2018-03-04T04:48:25.611Z,98225.91
2018-03-04T04:51:26.805Z,98230.94
2018-03-04T04:54:28.753Z,98222.09
2018-03-04T04:57:29.968Z,98215.11
2018-03-04T05:00:31.221Z,98203.89
2018-03-04T05:03:32.448Z,98212.45
2018-03-04T05:06:33.655Z,98205.95
2018-03-04T05:09:34.862Z,98200.30
2018-03-04T05:12:36.076Z,98207.20
2018-03-04T05:15:37.305Z,98206.56
2018-03-04T05:18:39.279Z,98208.61
2018-03-04T05:21:40.469Z,98209.13
2018-03-04T05:24:41.698Z,98200.27
2018-03-04T05:27:42.921Z,98209.20
2018-03-04T05:30:44.160Z,98207.38
2018-03-04T05:33:45.384Z,98214.40
2018-03-04T05:36:46.579Z,98211.01
2018-03-04T05:39:47.785Z,98211.80
2018-03-04T05:42:49.024Z,98209.19
2018-03-04T05:45:50.245Z,98215.66
2018-03-04T05:48:52.204Z,98206.70
2018-03-04T05:51:53.422Z,98211.36
2018-03-04T05:54:54.673Z,98211.20
2018-03-04T05:57:55.890Z,98222.63
2018-03-04T06:00:57.114Z,98219.34
2018-03-04T06:03:59.160Z,98221.09
2018-03-04T06:07:01.113Z,98222.11
2018-03-04T06:10:02.684Z,98226.30
2018-03-04T06:13:03.936Z,98233.62
2018-03-04T06:16:05.158Z,98230.75
2018-03-04T06:19:06.412Z,98228.30
2018-03-04T06:22:07.636Z,98228.92
2018-03-04T06:25:08.848Z,98226.05
2018-03-04T06:28:10.045Z,98221.23
2018-03-04T06:31:11.260Z,98223.55
2018-03-04T06:34:13.220Z,98228.19
2018-03-04T06:37:15.185Z,98223.57
2018-03-04T06:40:16.408Z,98227.61
2018-03-04T06:43:17.651Z,98232.80
2018-03-04T06:46:18.891Z,98233.30
2018-03-04T06:49:20.860Z,98232.66
2018-03-04T06:52:22.107Z,98236.62
2018-03-04T06:55:23.336Z,98241.39
2018-03-04T06:58:24.561Z,98245.59
2018-03-04T07:01:26.550Z,98237.45
2018-03-04T07:04:28.532Z,98247.84
2018-03-04T07:07:30.505Z,98240.80
2018-03-04T07:10:32.528Z,98243.94
2018-03-04T07:13:34.460Z,98249.03
2018-03-04T07:16:36.419Z,98257.09
2018-03-04T07:19:37.665Z,98251.75
2018-03-04T07:22:38.888Z,98249.87
2018-03-04T07:25:40.112Z,98239.84
2018-03-04T07:28:41.507Z,98246.38
2018-03-04T07:31:43.452Z,98253.86
2018-03-04T07:34:44.669Z,98253.33
2018-03-04T07:37:45.884Z,98250.83
2018-03-04T07:40:47.116Z,98258.86
2018-03-04T07:43:48.357Z,98260.53
2018-03-04T07:46:49.587Z,98250.08
2018-03-04T07:49:51.541Z,98249.73
2018-03-04T07:52:52.765Z,98252.23
2018-03-04T07:55:53.964Z,98252.59
2018-03-04T07:58:55.214Z,98251.34
2018-03-04T08:01:56.418Z,98253.25
2018-03-04T08:04:58.374Z,98250.09
2018-03-04T08:07:59.604Z,98260.70
2018-03-04T08:11:00.827Z,98265.08
2018-03-04T08:14:02.785Z,98266.52
2018-03-04T08:17:04.037Z,98247.61
2018-03-04T08:20:05.254Z,98236.77
2018-03-04T08:23:06.464Z,98246.17
2018-03-04T08:29:55.016Z,98229.34
2018-03-04T08:32:56.285Z,98237.09
2018-03-04T08:35:57.517Z,98234.04
2018-03-04T08:38:59.484Z,98235.78
2018-03-04T08:42:00.700Z,98247.08
2018-03-04T08:45:01.918Z,98245.56
2018-03-04T08:48:03.148Z,98248.98
2018-03-04T08:51:04.361Z,98250.13
2018-03-04T08:54:06.313Z,98248.90
2018-03-04T08:57:07.497Z,98245.77
2018-03-04T09:00:09.461Z,98252.48
2018-03-04T09:03:10.677Z,98267.05
2018-03-04T09:06:11.877Z,98256.23
2018-03-04T09:09:13.073Z,98266.70
2018-03-04T09:12:14.372Z,98258.06
2018-03-04T09:15:15.589Z,98258.72
2018-03-04T09:18:17.573Z,98267.23
2018-03-04T09:21:19.554Z,98270.85
2018-03-04T09:24:21.512Z,98262.09
2018-03-04T09:27:22.716Z,98270.46
2018-03-04T09:30:23.965Z,98252.52
2018-03-04T09:33:25.191Z,98252.06
2018-03-04T09:36:26.509Z,98253.02
2018-03-04T09:39:27.744Z,98259.05
2018-03-04T09:42:29.782Z,98247.59
2018-03-04T09:45:31.040Z,98252.47
2018-03-04T09:48:32.264Z,98253.58
2018-03-04T09:51:33.477Z,98243.19
2018-03-04T09:54:34.678Z,98233.55
2018-03-04T09:57:36.635Z,98239.56
2018-03-04T10:00:37.885Z,98240.95
2018-03-04T10:03:39.110Z,98245.81
2018-03-04T10:06:40.344Z,98239.72
2018-03-04T10:09:42.328Z,98231.38
2018-03-04T10:12:44.265Z,98227.05
2018-03-04T10:15:45.510Z,98227.48
2018-03-04T10:18:46.739Z,98226.25
2018-03-04T10:21:47.950Z,98235.83
2018-03-04T10:24:49.159Z,98225.11
2018-03-04T10:27:50.385Z,98218.20
2018-03-04T10:30:51.694Z,98219.02
2018-03-04T10:33:52.893Z,98210.29
2018-03-04T10:36:54.116Z,98218.33
2018-03-04T10:39:55.321Z,98219.53
2018-03-04T10:42:56.556Z,98201.46
2018-03-04T10:45:57.799Z,98213.58
2018-03-04T10:48:59.013Z,98205.48
2018-03-04T10:52:00.237Z,98195.40
2018-03-04T10:55:01.480Z,98195.22
2018-03-04T10:58:03.506Z,98195.97
2018-03-04T11:01:09.498Z,98197.94
2018-03-04T11:04:10.726Z,98189.34
2018-03-04T11:07:11.935Z,98188.14
2018-03-04T11:10:13.172Z,98195.68
2018-03-04T11:13:14.396Z,98204.25
2018-03-04T11:16:15.654Z,98194.08
2018-03-04T11:19:16.922Z,98187.05
2018-03-04T11:22:18.114Z,98185.58
2018-03-04T11:25:19.340Z,98186.38
2018-03-04T11:28:20.560Z,98192.23
2018-03-04T11:31:21.762Z,98190.09
2018-03-04T11:34:24.600Z,98186.59
2018-03-04T11:37:25.821Z,98187.21
2018-03-04T11:40:27.754Z,98182.70
2018-03-04T11:43:28.973Z,98182.74
2018-03-04T11:46:30.157Z,98187.77
2018-03-04T11:49:31.367Z,98175.95
2018-03-04T11:52:32.569Z,98180.31
2018-03-04T11:55:33.769Z,98166.33
2018-03-04T11:58:35.026Z,98169.93
2018-03-04T12:01:36.239Z,98166.72
2018-03-04T12:04:37.445Z,98167.89
2018-03-04T12:07:38.649Z,98161.81
2018-03-04T12:10:40.677Z,98159.86
2018-03-04T12:13:41.878Z,98143.14
2018-03-04T12:16:43.076Z,98151.70
2018-03-04T12:19:44.281Z,98133.44
2018-03-04T12:22:45.466Z,98134.06
2018-03-04T12:25:46.684Z,98129.21
2018-03-04T12:28:47.881Z,98124.74
2018-03-04T12:31:49.078Z,98105.48
2018-03-04T12:34:50.308Z,98119.91
2018-03-04T12:37:51.539Z,98110.53
2018-03-04T12:40:52.829Z,98112.48
2018-03-04T12:43:54.033Z,98096.50
2018-03-04T12:46:55.229Z,98093.42
2018-03-04T12:49:56.444Z,98093.38
2018-03-04T12:52:58.373Z,98088.36
2018-03-04T12:55:59.606Z,98094.66
2018-03-04T12:59:00.898Z,98083.58
2018-03-04T13:02:02.847Z,98078.79
2018-03-04T13:05:04.094Z,98076.66
2018-03-04T13:08:06.140Z,98074.50
2018-03-04T13:11:07.301Z,98059.05
2018-03-04T13:14:08.506Z,98050.78
2018-03-04T13:17:09.724Z,98053.81
2018-03-04T13:20:10.959Z,98052.11
2018-03-04T13:23:12.167Z,98042.12
2018-03-04T13:26:13.398Z,98044.30
2018-03-04T13:29:14.594Z,98034.33
2018-03-04T13:32:16.541Z,98038.56
2018-03-04T13:35:17.776Z,98034.87
2018-03-04T13:38:18.986Z,98032.09
2018-03-04T13:41:20.208Z,98027.70
2018-03-04T13:44:21.445Z,98037.07
2018-03-04T13:47:22.689Z,98028.83
2018-03-04T13:50:24.684Z,98030.98
2018-03-04T13:53:25.901Z,98027.44
2018-03-04T13:56:27.099Z,98017.41
2018-03-04T13:59:29.095Z,98024.60
2018-03-04T14:02:30.325Z,98025.77
2018-03-04T14:05:31.569Z,98011.90
2018-03-04T14:08:32.803Z,98010.55
2018-03-04T14:11:34.003Z,98014.06
2018-03-04T14:14:35.262Z,98011.34
2018-03-04T14:17:36.469Z,98009.75
2018-03-04T14:20:37.684Z,98011.20
2018-03-04T14:23:38.916Z,98005.56
2018-03-04T14:26:40.142Z,98000.75
2018-03-04T14:29:42.104Z,98003.55
2018-03-04T14:32:43.322Z,98002.73
2018-03-04T14:35:44.526Z,97999.83
2018-03-04T14:38:45.737Z,98000.66
2018-03-04T14:41:46.973Z,97992.05
2018-03-04T14:44:48.917Z,97997.37
2018-03-04T14:47:50.113Z,97996.78
2018-03-04T14:50:52.077Z,97990.42
2018-03-04T14:53:54.048Z,97999.09
2018-03-04T14:56:55.269Z,98005.73
2018-03-04T14:59:56.478Z,98001.95
2018-03-04T15:02:57.678Z,98000.17
2018-03-04T15:05:58.894Z,97993.96
2018-03-04T15:09:00.155Z,97998.20
2018-03-04T15:12:01.390Z,97996.23
2018-03-04T15:15:02.621Z,97997.86
2018-03-04T15:18:03.868Z,97992.60
2018-03-04T15:21:05.805Z,97992.81
2018-03-04T15:24:07.047Z,97988.31
2018-03-04T15:27:08.237Z,97980.45
2018-03-04T15:30:09.453Z,97983.19
2018-03-04T15:33:10.709Z,97971.89
2018-03-04T15:36:11.933Z,97969.30
2018-03-04T15:39:13.161Z,97961.16
2018-03-04T15:42:14.400Z,97959.12
2018-03-04T15:45:15.613Z,97958.77
2018-03-04T15:48:16.833Z,97952.20
2018-03-04T15:51:18.051Z,97937.44
2018-03-04T15:54:19.263Z,97942.35
2018-03-04T15:57:20.482Z,97939.09
2018-03-04T16:00:21.689Z,97935.97
2018-03-04T16:03:22.901Z,97923.95
2018-03-04T16:06:24.109Z,97908.34
2018-03-04T16:09:25.406Z,97913.84
2018-03-04T16:12:26.658Z,97906.80
2018-03-04T16:15:28.630Z,97908.70
2018-03-04T16:18:29.856Z,97909.50
2018-03-04T16:21:31.797Z,97914.73
2018-03-04T16:24:33.106Z,97918.23
2018-03-04T16:27:34.331Z,97920.59
2018-03-04T16:30:35.534Z,97924.23
2018-03-04T16:33:36.773Z,97928.61
2018-03-04T16:36:38.721Z,97914.84
2018-03-04T16:39:39.957Z,97914.76
2018-03-04T16:42:41.201Z,97898.14
2018-03-04T16:45:42.454Z,97910.88
2018-03-04T16:48:44.429Z,97897.75
2018-03-04T16:51:46.353Z,97906.34
2018-03-04T16:54:47.570Z,97904.13
2018-03-04T16:57:49.515Z,97908.52
2018-03-04T17:00:50.753Z,97904.98
2018-03-04T17:03:51.967Z,97905.80
2018-03-04T17:06:53.909Z,97905.41
2018-03-04T17:09:55.881Z,97901.17
2018-03-04T17:12:57.108Z,97899.91
2018-03-04T17:15:58.337Z,97896.55
2018-03-04T17:18:59.547Z,97895.09
2018-03-04T17:22:00.785Z,97896.57
2018-03-04T17:25:02.826Z,97889.66
2018-03-04T17:28:04.780Z,97894.87
2018-03-04T17:31:05.998Z,97884.83
2018-03-04T17:34:07.957Z,97887.47
2018-03-04T17:37:09.199Z,97885.57
2018-03-04T17:40:10.466Z,97888.72
2018-03-04T17:43:11.686Z,97883.44
2018-03-04T17:46:12.894Z,97884.73
2018-03-04T17:49:14.113Z,97878.14
2018-03-04T17:52:15.328Z,97883.70
2018-03-04T17:55:16.537Z,97883.88
2018-03-04T17:58:17.734Z,97885.16
2018-03-04T18:01:19.689Z,97889.17
2018-03-04T18:04:20.890Z,97882.12
2018-03-04T18:07:22.092Z,97892.91
2018-03-04T18:10:24.039Z,97892.91
2018-03-04T18:13:25.306Z,97894.02
2018-03-04T18:16:26.525Z,97897.11
2018-03-04T18:19:27.762Z,97913.05
2018-03-04T18:22:35.956Z,97904.73
2018-03-04T18:25:37.177Z,97903.74
2018-03-04T18:28:38.409Z,97916.62
2018-03-04T18:31:40.365Z,97901.23
2018-03-04T18:34:41.594Z,97902.97
2018-03-04T18:37:42.811Z,97899.11
2018-03-04T18:40:44.773Z,97884.49
2018-03-04T18:43:46.053Z,97881.06
2018-03-04T18:46:47.213Z,97871.14
2018-03-04T18:49:49.209Z,97860.88
2018-03-04T18:52:50.424Z,97854.31
2018-03-04T18:55:51.688Z,97848.11
2018-03-04T18:58:52.932Z,97842.64
2018-03-04T19:01:54.140Z,97837.13
2018-03-04T19:04:56.183Z,97840.88
2018-03-04T19:07:57.382Z,97838.83
2018-03-04T19:10:59.344Z,97843.21
2018-03-04T19:14:00.572Z,97851.25
2018-03-04T19:17:01.765Z,97847.47
2018-03-04T19:20:03.016Z,97842.79
2018-03-04T19:23:04.244Z,97860.37
2018-03-04T19:26:05.476Z,97862.41
2018-03-04T19:29:07.446Z,97860.22
2018-03-04T19:32:08.717Z,97868.64
2018-03-04T19:35:10.687Z,97855.80
2018-03-04T19:38:11.934Z,97868.53
2018-03-04T19:41:13.164Z,97861.66
2018-03-04T19:44:14.397Z,97862.39
2018-03-04T19:47:16.385Z,97863.98
2018-03-04T19:50:17.616Z,97857.02
2018-03-04T19:53:18.846Z,97844.50
2018-03-04T19:56:20.049Z,97823.98
2018-03-04T19:59:21.276Z,97824.46
2018-03-04T20:02:22.492Z,97816.11
2018-03-04T20:05:23.743Z,97800.70
2018-03-04T20:08:25.713Z,97796.73
2018-03-04T20:11:26.909Z,97783.41
2018-03-04T20:14:28.128Z,97794.25
2018-03-04T20:17:29.329Z,97784.38
2018-03-04T20:20:30.580Z,97785.08
2018-03-04T20:23:32.559Z,97777.64
2018-03-04T20:26:34.516Z,97777.69
2018-03-04T20:29:35.765Z,97771.12
2018-03-04T20:32:36.977Z,97772.98
2018-03-04T20:35:38.205Z,97770.38
2018-03-04T20:38:39.411Z,97773.86
2018-03-04T20:41:40.640Z,97762.92
2018-03-04T20:44:42.597Z,97756.70
2018-03-04T20:47:43.793Z,97771.97
2018-03-04T20:50:46.307Z,97765.16
2018-03-04T20:53:47.944Z,97748.78
2018-03-04T20:56:49.198Z,97765.48
2018-03-04T20:59:51.405Z,97768.44
2018-03-04T21:02:53.913Z,97757.17
2018-03-04T21:05:55.162Z,97771.47
2018-03-04T21:08:57.573Z,97770.77
2018-03-04T21:11:59.303Z,97775.19
2018-03-04T21:15:01.321Z,97775.73
2018-03-04T21:18:02.614Z,97758.30
2018-03-04T21:21:03.877Z,97760.47
2018-03-04T21:24:05.224Z,97776.55
2018-03-04T21:27:06.453Z,97777.27
2018-03-04T21:30:08.766Z,97789.80
2018-03-04T21:33:10.590Z,97769.53
2018-03-04T21:36:13.242Z,97775.38
2018-03-04T21:39:14.486Z,97783.87
2018-03-04T21:42:16.489Z,97789.25
2018-03-04T21:45:19.713Z,97782.97
2018-03-04T21:48:21.319Z,97796.58
2018-03-04T21:51:23.954Z,97794.94
2018-03-04T21:54:25.235Z,97793.68
2018-03-04T21:57:26.468Z,97804.52
2018-03-04T22:00:28.482Z,97819.17
2018-03-04T22:03:30.408Z,97799.03
2018-03-04T22:06:31.680Z,97809.34
2018-03-04T22:09:33.948Z,97805.23
2018-03-04T22:12:35.593Z,97823.27
2018-03-04T22:15:37.090Z,97814.27
2018-03-04T22:18:39.262Z,97810.20
2018-03-04T22:21:40.585Z,97824.62
2018-03-04T22:24:41.865Z,97820.09
2018-03-04T22:27:43.303Z,97825.73
2018-03-04T22:30:44.757Z,97808.19
2018-03-04T22:33:46.723Z,97839.47
2018-03-04T22:36:47.945Z,97837.51
2018-03-04T22:39:49.185Z,97846.89
2018-03-04T22:42:50.828Z,97852.30
2018-03-04T22:45:53.188Z,97843.50
2018-03-04T22:48:54.788Z,97851.81
2018-03-04T22:51:57.414Z,97849.65
2018-03-04T22:54:58.714Z,97852.97
2018-03-04T22:57:59.978Z,97866.66
2018-03-04T23:01:01.235Z,97869.89
2018-03-04T23:04:02.501Z,97882.23
2018-03-04T23:07:03.757Z,97885.95
2018-03-04T23:10:04.996Z,97893.14
2018-03-04T23:13:06.248Z,97901.44
2018-03-04T23:16:07.468Z,97915.14
2018-03-04T23:19:08.699Z,97900.58
2018-03-04T23:22:09.954Z,97910.48
2018-03-04T23:25:11.747Z,97912.59
2018-03-04T23:28:13.005Z,97913.60
2018-03-04T23:31:14.236Z,97924.45
2018-03-04T23:34:16.219Z,97918.78
2018-03-04T23:37:17.487Z,97920.92
2018-03-04T23:40:18.753Z,97939.78
2018-03-04T23:43:19.988Z,97940.97
2018-03-04T23:46:21.955Z,97948.23
2018-03-04T23:49:23.184Z,97948.72
2018-03-04T23:52:24.428Z,97947.97
2018-03-04T23:55:25.672Z,97954.25
2018-03-04T23:58:26.873Z,97949.41
